Time;durP1;ratioP1;P1;durP2;ratioP2;P2;SDS_P1;SDS_P2;PMS_P1;PMS_P2;Temp;Humidity;BMP_temperature;BMP_pressure;BME280_temperature;BME280_humidity;BME280_pressure;Samples;Min_cycle;Max_cycle;Signal;HPM_P1;HPM_P2
2023/12/17 00:01:39;;;;;;;;;;;;;;;9.48;86.56;102040.68;106215;1254;67146;-87
2023/12/17 00:04:06;;;;;;;;;;;;;;;9.38;87.82;102041.99;106138;1255;70823;-87
2023/12/17 00:06:42;;;;;;;;;;;;;;;9.40;87.89;102040.42;106075;1258;61263;-90
2023/12/17 00:09:15;;;;;;;;;;;;;;;9.32;88.49;102044.90;106189;1254;61331;-90
2023/12/17 00:11:49;;;;;;;;;;;;;;;9.35;88.67;102045.70;106169;1259;74619;-89
2023/12/17 00:14:18;;;;;;;;;;;;;;;9.40;88.30;102046.64;106340;1254;68541;-90
2023/12/17 00:16:54;;;;;;;;;;;;;;;9.43;88.42;102051.59;106024;1259;72684;-88
2023/12/17 00:19:21;;;;;;;;;;;;;;;9.36;89.05;102051.19;106143;1258;61128;-86
2023/12/17 00:21:55;;;;;;;;;;;;;;;9.35;89.41;102050.40;106401;1253;61203;-87
2023/12/17 00:24:24;;;;;;;;;;;;;;;9.44;89.04;102045.52;106313;1254;73347;-87
2023/12/17 00:26:58;;;;;;;;;;;;;;;9.43;89.08;102040.34;106257;1253;68319;-89
2023/12/17 00:29:31;;;;;;;;;;;;;;;9.41;89.51;102033.85;105997;1254;72651;-88
2023/12/17 04:32:08;;;;;;;;;;;;;;;10.04;81.07;101849.42;106207;1254;61148;-88
2023/12/17 04:34:42;;;;;;;;;;;;;;;10.01;81.30;101844.08;106198;1254;74791;-88
2023/12/17 04:37:15;;;;;;;;;;;;;;;9.98;81.35;101844.33;106393;1258;67135;-87
2023/12/17 04:39:43;;;;;;;;;;;;;;;9.94;81.58;101846.48;106312;1253;71880;-88
2023/12/17 04:42:17;;;;;;;;;;;;;;;9.78;82.94;101844.67;106285;1253;61224;-88
2023/12/17 04:44:50;;;;;;;;;;;;;;;9.67;83.94;101843.83;106448;1253;59334;-87
2023/12/17 04:47:24;;;;;;;;;;;;;;;9.70;84.11;101846.23;106419;1253;73181;-86
2023/12/17 04:49:51;;;;;;;;;;;;;;;9.64;84.36;101840.27;106168;1256;67074;-87
2023/12/17 04:52:25;;;;;;;;;;;;;;;9.64;84.54;101836.50;106297;1253;72754;-87
2023/12/17 04:54:59;;;;;;;;;;;;;;;9.71;84.07;101834.20;106179;1254;61305;-88
2023/12/17 04:57:33;;;;;;;;;;;;;;;9.75;84.00;101834.55;106280;1252;61196;-88
2023/12/17 05:00:03;;;;;;;;;;;;;;;9.83;83.20;101833.81;106349;1253;73767;-88
2023/12/17 05:02:37;;;;;;;;;;;;;;;9.86;82.67;101824.42;106307;1253;69744;-88
2023/12/17 05:05:11;;;;;;;;;;;;;;;9.94;82.38;101812.56;106165;1254;71111;-87
2023/12/17 05:07:45;;;;;;;;;;;;;;;9.98;82.11;101812.43;106246;1254;61205;-87
2023/12/17 05:10:13;;;;;;;;;;;;;;;9.99;82.02;101814.70;106332;1255;61244;-88
2023/12/17 05:12:46;;;;;;;;;;;;;;;10.00;81.94;101807.45;106293;1255;74946;-88
2023/12/17 05:15:21;;;;;;;;;;;;;;;10.11;81.42;101803.19;106376;1253;68398;-87
2023/12/17 05:17:54;;;;;;;;;;;;;;;10.23;80.49;101805.88;106256;1253;71177;-88
2023/12/17 05:20:28;;;;;;;;;;;;;;;10.35;79.47;101808.27;106228;1254;61296;-87
2023/12/17 05:23:02;;;;;;;;;;;;;;;10.32;79.27;101807.75;106142;1260;61160;-86
2023/12/17 05:25:36;;;;;;;;;;;;;;;10.30;79.19;101810.10;106242;1256;74684;-88
2023/12/17 05:28:11;;;;;;;;;;;;;;;10.24;79.61;101815.42;106407;1253;67264;-87
2023/12/17 05:30:46;;;;;;;;;;;;;;;10.29;79.40;101816.48;106213;1256;71491;-88
2023/12/17 05:33:20;;;;;;;;;;;;;;;10.37;78.87;101819.23;106203;1254;61324;-88
2023/12/17 05:35:54;;;;;;;;;;;;;;;10.32;78.95;101816.50;106289;1254;61198;-88
2023/12/17 05:38:28;;;;;;;;;;;;;;;10.29;79.27;101822.36;106283;1254;76906;-88
2023/12/17 05:41:02;;;;;;;;;;;;;;;10.29;79.31;101821.44;106286;1258;67230;-87
2023/12/17 05:43:35;;;;;;;;;;;;;;;10.42;78.33;101820.46;106357;1254;71617;-86
2023/12/17 05:46:09;;;;;;;;;;;;;;;10.47;77.86;101826.09;106371;1259;61246;-87
2023/12/17 05:48:43;;;;;;;;;;;;;;;10.49;77.62;101819.28;106141;1254;61243;-87
2023/12/17 05:51:16;;;;;;;;;;;;;;;10.47;77.33;101820.40;106313;1254;73464;-88
2023/12/17 05:53:50;;;;;;;;;;;;;;;10.44;77.70;101822.04;106349;1254;68488;-87
2023/12/17 05:56:24;;;;;;;;;;;;;;;10.51;77.08;101816.41;106383;1254;73135;-87
2023/12/17 05:58:57;;;;;;;;;;;;;;;10.41;77.58;101809.91;106196;1253;61258;-87
2023/12/17 06:01:31;;;;;;;;;;;;;;;10.50;77.23;101811.98;106223;1255;61315;-88
2023/12/17 06:04:04;;;;;;;;;;;;;;;10.53;76.97;101809.90;106170;1258;74648;-87
2023/12/17 06:06:39;;;;;;;;;;;;;;;10.56;76.56;101811.88;106297;1254;67109;-88
2023/12/17 06:09:13;;;;;;;;;;;;;;;10.65;76.06;101804.86;106073;1256;71436;-87
2023/12/17 06:11:47;;;;;;;;;;;;;;;10.60;76.23;101808.84;106272;1253;61333;-87
2023/12/17 06:14:21;;;;;;;;;;;;;;;10.55;76.50;101804.53;106338;1253;61169;-88
2023/12/17 06:16:54;;;;;;;;;;;;;;;10.51;76.89;101798.98;106140;1253;74687;-86
2023/12/17 06:19:28;;;;;;;;;;;;;;;10.60;76.46;101791.98;106354;1256;68484;-86
2023/12/17 06:22:02;;;;;;;;;;;;;;;10.55;76.68;101792.55;106180;1258;72705;-87
2023/12/17 06:24:36;;;;;;;;;;;;;;;10.50;77.39;101797.38;106287;1258;61328;-86
2023/12/17 06:27:13;;;;;;;;;;;;;;;10.56;76.65;101790.34;106203;1258;61238;-87
2023/12/17 06:29:49;;;;;;;;;;;;;;;10.74;75.38;101782.51;106202;1254;73416;-87
2023/12/17 06:32:23;;;;;;;;;;;;;;;10.82;74.64;101782.64;106217;1253;68339;-87
2023/12/17 06:34:56;;;;;;;;;;;;;;;10.87;73.97;101783.13;106142;1256;71453;-87
2023/12/17 06:37:30;;;;;;;;;;;;;;;10.78;74.67;101777.70;106093;1255;61315;-86
2023/12/17 06:40:04;;;;;;;;;;;;;;;10.87;73.93;101774.41;106168;1255;61203;-86
2023/12/17 06:42:40;;;;;;;;;;;;;;;11.06;72.72;101771.40;106229;1253;74665;-86
2023/12/17 06:45:14;;;;;;;;;;;;;;;11.07;72.45;101776.73;106392;1253;68003;-87
2023/12/17 06:47:48;;;;;;;;;;;;;;;11.05;72.11;101767.23;106448;1253;72644;-86
2023/12/17 06:50:22;;;;;;;;;;;;;;;11.07;72.31;101764.25;106342;1254;61557;-86
2023/12/17 06:52:56;;;;;;;;;;;;;;;11.15;71.66;101760.33;106365;1258;61261;-88
2023/12/17 06:55:30;;;;;;;;;;;;;;;11.26;70.90;101762.73;106125;1254;74648;-87
2023/12/17 06:58:03;;;;;;;;;;;;;;;11.21;70.99;101760.08;106439;1253;68586;-86
2023/12/17 07:00:37;;;;;;;;;;;;;;;11.27;70.80;101766.46;106126;1256;71408;-86
2023/12/17 07:03:11;;;;;;;;;;;;;;;11.27;70.84;101764.38;106090;1258;61350;-86
2023/12/17 07:05:45;;;;;;;;;;;;;;;11.26;71.10;101758.14;106205;1258;61303;-86
2023/12/17 07:08:19;;;;;;;;;;;;;;;11.13;71.80;101756.36;106147;1255;73376;-87
2023/12/17 07:10:53;;;;;;;;;;;;;;;11.08;72.47;101750.01;105931;1261;67263;-86
2023/12/17 07:13:27;;;;;;;;;;;;;;;11.09;72.59;101747.38;106115;1256;71135;-86
2023/12/17 07:16:00;;;;;;;;;;;;;;;10.75;74.98;101756.71;106302;1254;61301;-87
2023/12/17 07:18:34;;;;;;;;;;;;;;;10.72;75.69;101755.46;106149;1258;61272;-86
2023/12/17 07:21:08;;;;;;;;;;;;;;;10.66;76.67;101757.77;106375;1258;74777;-86
2023/12/17 07:23:41;;;;;;;;;;;;;;;10.63;77.64;101746.92;106339;1256;68410;-87
2023/12/17 07:26:15;;;;;;;;;;;;;;;10.59;78.26;101742.39;106306;1254;72652;-88
2023/12/17 07:28:49;;;;;;;;;;;;;;;10.57;79.28;101738.25;106403;1252;61247;-88
2023/12/17 07:31:23;;;;;;;;;;;;;;;10.58;80.23;101744.29;106320;1253;61433;-89
2023/12/17 07:33:56;;;;;;;;;;;;;;;10.69;80.29;101739.22;106350;1254;74749;-89
2023/12/17 07:36:30;;;;;;;;;;;;;;;10.82;80.22;101739.80;106171;1254;68481;-87
2023/12/17 07:39:04;;;;;;;;;;;;;;;10.83;80.72;101743.80;106190;1256;72763;-90
2023/12/17 07:41:38;;;;;;;;;;;;;;;10.85;80.88;101737.33;106383;1253;61298;-87
2023/12/17 07:44:12;;;;;;;;;;;;;;;10.56;82.62;101733.32;106428;1253;61286;-86
2023/12/17 07:46:46;;;;;;;;;;;;;;;10.30;85.33;101731.16;106285;1254;74673;-87
2023/12/17 07:49:20;;;;;;;;;;;;;;;10.20;86.61;101732.39;106304;1253;68352;-89
2023/12/17 07:51:54;;;;;;;;;;;;;;;10.27;86.32;101739.04;106294;1254;72754;-89
2023/12/17 07:54:29;;;;;;;;;;;;;;;10.29;86.51;101733.88;106356;1257;61338;-88
2023/12/17 07:57:03;;;;;;;;;;;;;;;10.26;87.21;101735.14;106347;1257;61124;-87
2023/12/17 07:59:37;;;;;;;;;;;;;;;10.38;87.04;101731.20;106231;1258;75077;-89
2023/12/17 08:02:10;;;;;;;;;;;;;;;10.41;87.20;101728.58;106394;1253;68898;-86
2023/12/17 08:04:45;;;;;;;;;;;;;;;10.34;88.35;101732.23;106212;1253;72685;-86
2023/12/17 08:07:18;;;;;;;;;;;;;;;10.24;89.22;101726.07;106245;1253;61245;-89
2023/12/17 08:09:52;;;;;;;;;;;;;;;10.28;88.77;101730.15;106082;1255;61149;-86
2023/12/17 08:12:26;;;;;;;;;;;;;;;10.26;88.62;101731.41;106258;1253;74794;-88
2023/12/17 08:15:00;;;;;;;;;;;;;;;10.30;88.77;101728.48;106112;1256;68624;-86
2023/12/17 08:17:34;;;;;;;;;;;;;;;10.34;89.10;101733.15;106105;1253;72676;-87
2023/12/17 08:20:08;;;;;;;;;;;;;;;10.45;88.86;101721.83;106083;1255;190004;-86
2023/12/17 08:22:41;;;;;;;;;;;;;;;10.52;88.52;101721.61;106179;1253;60072;-86
2023/12/17 08:25:15;;;;;;;;;;;;;;;10.47;89.18;101721.42;106675;1254;72604;-87
2023/12/17 08:27:49;;;;;;;;;;;;;;;10.43;89.67;101725.01;106289;1254;68702;-87
2023/12/17 08:30:22;;;;;;;;;;;;;;;10.44;90.37;101723.45;106503;1256;72662;-88
2023/12/17 08:32:57;;;;;;;;;;;;;;;10.51;90.10;101722.48;106236;1254;61420;-88
2023/12/17 08:35:31;;;;;;;;;;;;;;;10.59;89.72;101722.33;106351;1253;61142;-88
2023/12/17 08:38:06;;;;;;;;;;;;;;;10.56;90.02;101723.48;106380;1258;74688;-87
2023/12/17 08:40:40;;;;;;;;;;;;;;;10.55;90.41;101721.61;106393;1258;67106;-88
2023/12/17 08:43:14;;;;;;;;;;;;;;;10.67;89.79;101713.75;106200;1258;72697;-87
2023/12/17 08:45:48;;;;;;;;;;;;;;;10.78;89.15;101707.96;106257;1256;61316;-87
2023/12/17 08:48:21;;;;;;;;;;;;;;;10.79;88.87;101699.41;106213;1253;61263;-89
2023/12/17 08:50:56;;;;;;;;;;;;;;;10.80;89.09;101693.02;106125;1260;73141;-89
2023/12/17 08:53:30;;;;;;;;;;;;;;;10.84;88.87;101687.77;106318;1253;67444;-91
2023/12/17 08:56:04;;;;;;;;;;;;;;;10.82;89.98;101686.64;106376;1253;71714;-94
2023/12/17 08:58:38;;;;;;;;;;;;;;;10.81;90.38;101683.23;106246;1253;61704;-90
2023/12/17 09:01:12;;;;;;;;;;;;;;;10.82;90.53;101680.73;106276;1253;61246;-91
2023/12/17 09:03:46;;;;;;;;;;;;;;;10.89;89.82;101672.47;106377;1255;76225;-88
2023/12/17 09:06:19;;;;;;;;;;;;;;;10.88;89.79;101672.57;106359;1253;67563;-90
2023/12/17 09:08:53;;;;;;;;;;;;;;;10.83;89.87;101667.54;106554;1253;72254;-91
2023/12/17 09:11:27;;;;;;;;;;;;;;;10.82;89.49;101663.45;106397;1256;61346;-89
2023/12/17 09:14:01;;;;;;;;;;;;;;;10.85;89.38;101660.00;106357;1258;61228;-89
2023/12/17 09:16:34;;;;;;;;;;;;;;;10.88;88.88;101660.54;106423;1256;73458;-90
2023/12/17 09:19:08;;;;;;;;;;;;;;;10.92;88.41;101655.23;106386;1253;68953;-89
2023/12/17 09:21:42;;;;;;;;;;;;;;;10.98;87.84;101655.77;106391;1253;72754;-93
2023/12/17 09:24:16;;;;;;;;;;;;;;;10.93;88.08;101655.91;106205;1258;61248;-91
2023/12/17 09:26:50;;;;;;;;;;;;;;;10.90;88.53;101653.56;106460;1258;61254;-91
2023/12/17 09:29:23;;;;;;;;;;;;;;;10.85;88.39;101659.41;106302;1254;74746;-92
2023/12/17 09:31:57;;;;;;;;;;;;;;;10.87;88.49;101649.85;106167;1252;68355;-92
2023/12/17 09:34:34;;;;;;;;;;;;;;;10.86;88.54;101649.41;106074;1256;72707;-91
2023/12/17 09:37:07;;;;;;;;;;;;;;;10.87;88.63;101651.66;106501;1253;61286;-90
2023/12/17 09:39:41;;;;;;;;;;;;;;;10.85;88.99;101645.58;106356;1252;61282;-93
2023/12/17 09:42:19;;;;;;;;;;;;;;;10.90;88.81;101634.38;106349;1256;73886;-92
2023/12/17 09:44:53;;;;;;;;;;;;;;;10.96;88.28;101631.45;106273;1253;68355;-92
2023/12/17 09:47:27;;;;;;;;;;;;;;;11.02;87.87;101625.88;106321;1253;72730;-92
2023/12/17 09:50:01;;;;;;;;;;;;;;;11.06;87.19;101630.59;106353;1254;61320;-92
2023/12/17 09:52:34;;;;;;;;;;;;;;;10.99;87.54;101631.65;106371;1256;61549;-91
2023/12/17 09:55:11;;;;;;;;;;;;;;;10.94;87.98;101620.11;106259;1253;73428;-91
2023/12/17 09:57:45;;;;;;;;;;;;;;;10.92;88.42;101623.40;106290;1254;68508;-92
2023/12/17 10:00:18;;;;;;;;;;;;;;;10.91;88.29;101625.59;106436;1253;71486;-90
2023/12/17 10:02:53;;;;;;;;;;;;;;;10.93;88.01;101624.78;106380;1255;61249;-90
2023/12/17 10:05:27;;;;;;;;;;;;;;;11.02;87.13;101621.29;106584;1253;61173;-91
2023/12/17 10:08:01;;;;;;;;;;;;;;;11.10;86.25;101619.75;106282;1258;73369;-92
2023/12/17 10:10:35;;;;;;;;;;;;;;;11.04;86.52;101619.83;106271;1258;67130;-91
2023/12/17 10:13:11;;;;;;;;;;;;;;;11.14;85.79;101618.83;106345;1256;72863;-92
2023/12/17 10:15:48;;;;;;;;;;;;;;;11.18;84.74;101612.24;106236;1253;61270;-92
2023/12/17 10:18:22;;;;;;;;;;;;;;;11.20;84.07;101606.09;106199;1255;61226;-91
2023/12/17 10:20:56;;;;;;;;;;;;;;;11.18;83.72;101606.73;106509;1254;75153;-92
2023/12/17 10:23:44;;;;;;;;;;;;;;;11.22;82.90;101606.45;106382;1256;67435;-91
2023/12/17 10:26:19;;;;;;;;;;;;;;;11.15;82.95;101600.79;106144;1256;73027;-91
2023/12/17 10:28:53;;;;;;;;;;;;;;;11.05;83.39;101596.77;106226;1253;61764;-91
2023/12/17 10:31:27;;;;;;;;;;;;;;;11.03;83.51;101589.63;106152;1253;61198;-90
2023/12/17 10:34:01;;;;;;;;;;;;;;;11.03;83.76;101591.05;106174;1253;74738;-91
2023/12/17 10:36:36;;;;;;;;;;;;;;;11.04;84.10;101588.61;106372;1254;68362;-91
2023/12/17 10:39:09;;;;;;;;;;;;;;;11.01;84.31;101586.00;106336;1253;72667;-91
2023/12/17 10:41:43;;;;;;;;;;;;;;;11.08;84.22;101589.21;106322;1254;61347;-91
2023/12/17 10:44:17;;;;;;;;;;;;;;;11.13;84.11;101586.36;106275;1253;61460;-90
2023/12/17 10:46:51;;;;;;;;;;;;;;;11.18;84.01;101584.89;106086;1256;74657;-92
2023/12/17 10:49:24;;;;;;;;;;;;;;;11.17;84.37;101586.14;106261;1256;66336;-92
2023/12/17 10:51:58;;;;;;;;;;;;;;;11.20;84.38;101580.20;106368;1252;71645;-91
2023/12/17 10:54:32;;;;;;;;;;;;;;;11.27;84.16;101583.23;106419;1254;61321;-92
2023/12/17 10:57:13;;;;;;;;;;;;;;;11.37;83.85;101581.34;106290;1254;61328;-91
2023/12/17 10:59:48;;;;;;;;;;;;;;;11.27;84.41;101579.78;106184;1253;74688;-92
2023/12/17 11:02:23;;;;;;;;;;;;;;;11.33;84.06;101580.20;106262;1253;68803;-92
2023/12/17 11:04:58;;;;;;;;;;;;;;;11.37;83.87;101577.60;106319;1253;72989;-90
2023/12/17 11:07:31;;;;;;;;;;;;;;;11.34;83.81;101573.58;106215;1256;61149;-91
2023/12/17 11:10:11;;;;;;;;;;;;;;;11.19;85.14;101576.86;106507;1256;61165;-91
2023/12/17 11:12:45;;;;;;;;;;;;;;;11.19;85.24;101577.36;106551;1254;77166;-90
2023/12/17 11:15:22;;;;;;;;;;;;;;;11.15;85.54;101575.19;106270;1257;70267;-91
2023/12/17 11:17:56;;;;;;;;;;;;;;;11.20;85.46;101575.06;106222;1258;71066;-91
2023/12/17 11:20:39;;;;;;;;;;;;;;;11.36;84.00;101581.81;106577;1254;61322;-91
2023/12/17 11:23:19;;;;;;;;;;;;;;;11.19;85.21;101585.02;106222;1255;61272;-91
2023/12/17 11:25:53;;;;;;;;;;;;;;;11.12;85.51;101584.73;106281;1257;74697;-92
2023/12/17 11:28:27;;;;;;;;;;;;;;;11.13;85.28;101575.48;106517;1254;68671;-91
2023/12/17 11:31:01;;;;;;;;;;;;;;;11.14;85.39;101577.58;107442;1260;71145;-91
2023/12/17 11:33:35;;;;;;;;;;;;;;;11.22;84.75;101582.02;106364;1256;61695;-91
2023/12/17 11:36:10;;;;;;;;;;;;;;;11.23;84.49;101581.06;106240;1253;62187;-91
2023/12/17 11:38:44;;;;;;;;;;;;;;;11.25;84.33;101576.77;106678;1253;73370;-90
2023/12/17 11:41:18;;;;;;;;;;;;;;;11.28;84.11;101571.20;106309;1254;68412;-92
2023/12/17 11:43:52;;;;;;;;;;;;;;;11.24;84.40;101569.30;106225;1253;71476;-90
2023/12/17 11:46:26;;;;;;;;;;;;;;;11.32;83.75;101569.06;106339;1254;61545;-90
2023/12/17 11:49:00;;;;;;;;;;;;;;;11.18;84.64;101570.17;106304;1253;61244;-92
2023/12/17 11:51:34;;;;;;;;;;;;;;;11.22;84.26;101570.66;106267;1253;73472;-92
2023/12/17 11:54:08;;;;;;;;;;;;;;;11.27;83.90;101565.30;106352;1256;67419;-94
2023/12/17 11:56:42;;;;;;;;;;;;;;;11.34;83.41;101566.13;106285;1254;71401;-92
2023/12/17 11:59:30;;;;;;;;;;;;;;;11.25;83.62;101567.24;106351;1255;61653;-92
2023/12/17 12:02:03;;;;;;;;;;;;;;;11.18;84.53;101567.54;106239;1253;61337;-93
2023/12/17 12:04:38;;;;;;;;;;;;;;;11.13;84.96;101562.68;106501;1257;74656;-92
2023/12/17 12:07:17;;;;;;;;;;;;;;;11.04;85.68;101560.54;106340;1256;68752;-92
2023/12/17 12:09:50;;;;;;;;;;;;;;;11.05;85.90;101561.91;106319;1256;70566;-93
2023/12/17 12:12:26;;;;;;;;;;;;;;;11.11;85.43;101552.37;106242;1255;61256;-93
2023/12/17 12:14:54;;;;;;;;;;;;;;;11.21;85.08;101551.22;106415;1256;61112;-91
2023/12/17 12:17:38;;;;;;;;;;;;;;;11.22;84.55;101548.39;106396;1253;74624;-92
2023/12/17 12:20:12;;;;;;;;;;;;;;;11.21;84.57;101551.83;106609;1253;68570;-91
2023/12/17 12:22:47;;;;;;;;;;;;;;;11.31;84.23;101553.46;106550;1259;71061;-91
2023/12/17 12:25:18;;;;;;;;;;;;;;;11.40;83.83;101558.38;106566;1259;61801;-92
2023/12/17 12:27:51;;;;;;;;;;;;;;;11.36;84.07;101558.66;106531;1254;61140;-91
2023/12/17 12:30:25;;;;;;;;;;;;;;;11.38;83.93;101559.98;106545;1253;73727;-90
